McDonald, KS (67745)

3:14 AM CST on January 31, 2015 (GMT -0600)
Sunflower Aero, Inc | Change Station
CLOSE
Current Station
Personal Weather Station
Location: Atwood, KS
Elevation: 2956 ft
Nearby Weather Stations

Elev 2956 ft 39.84 °N, 101.05 °W | Updated 7 seconds ago

Overcast
Overcast
34.0 °F
Feels Like 25 °F
N
12.0
Wind Variable Wind from SSE
Gusts 17.0 mph

Today
High -- | Low -- °F
--% Chance of Precip.
Yesterday
High -- | Low -- °F
Precip. -- in
7:54 AM 6:03 PM
Waxing Gibbous, 88% visible
Pressure 29.99 in
Visibility 10.0 miles
Clouds Overcast 800 ft
Windchill 25 °F
Dew Point 32 °F
Humidity 92%
Rainfall 0.00 in
Snow Depth Not available.
UV 0 out of 12
Pollen .70 out of 12
Air Quality Not available.
Flu Activity Not available.
METAR KSYF 310855Z AUTO 17009KT 10SM OVC008 02/00 A2999 RMK AO2 T00170000

More Conditions Fewer Conditions

Pressure 29.99 in
Visibility 10.0 miles
Clouds Overcast 800 ft
Windchill 25 °F
Dew Point 32 °F
Humidity 92%
Rainfall 0.00 in
Snow Depth Not available.
UV 0 out of 12
Pollen .70 out of 12
Air Quality Not available.
Flu Activity Not available.
METAR KSYF 310855Z AUTO 17009KT 10SM OVC008 02/00 A2999 RMK AO2 T00170000

More Conditions Fewer Conditions

10-Day Weather Forecast

Almanac

Astronomy

Jan. 31, 2015 Rise Set
Actual Time
Civil Twilight
Nautical Twilight
Astronomical Twilight
Moon
Length of Visible Light
Length of Day
Tomorrow will be .
, % of the Moon is Illuminated

Today's Extremes

State Highs State Lows

Community

WunderPhotos

Upload Photos

1,792,021 photos uploaded!

WunderBlogs® & News

Nearby

Air Quality

  Air Quality AQ Index Pollutant
Not available.

Snow Depth

Station Depth Elevation

Earthquake Activity

City Distance Mag. Time & Date
Minimum magnitude displayed is 2.5.

Coastal Water Temperatures

Place Temperature

Nearby Weather Stations